createdAt,value
2023-05-23T00:00:42.840Z,23.89
2023-05-23T00:02:44.856Z,23.85
2023-05-23T00:04:46.563Z,23.84
2023-05-23T00:06:50.407Z,23.81
2023-05-23T00:08:52.518Z,23.79
2023-05-23T00:10:54.078Z,23.77
2023-05-23T00:12:55.552Z,23.74
2023-05-23T00:14:57.443Z,23.71
2023-05-23T00:17:02.053Z,23.68
2023-05-23T00:19:05.387Z,23.66
2023-05-23T00:21:06.973Z,23.63
2023-05-23T00:23:12.203Z,23.60
2023-05-23T00:25:13.953Z,23.58
2023-05-23T00:27:15.458Z,23.57
2023-05-23T00:29:17.552Z,23.53
2023-05-23T00:31:19.260Z,23.50
2023-05-23T00:33:22.616Z,23.47
2023-05-23T00:35:24.733Z,23.44
2023-05-23T00:37:26.253Z,23.42
2023-05-23T00:39:27.958Z,23.38
2023-05-23T00:41:30.617Z,23.38
2023-05-23T00:43:32.778Z,23.34
2023-05-23T00:45:34.300Z,23.32
2023-05-23T00:47:36.066Z,23.29
2023-05-23T00:49:38.343Z,23.26
2023-05-23T00:51:42.391Z,23.24
2023-05-23T00:53:50.144Z,23.22
2023-05-23T00:55:53.036Z,23.19
2023-05-23T00:57:57.127Z,23.18
2023-05-23T00:59:58.934Z,23.15
2023-05-23T01:02:02.361Z,23.13
2023-05-23T01:04:04.610Z,23.10
2023-05-23T01:06:07.345Z,23.08
2023-05-23T01:08:08.975Z,23.06
2023-05-23T01:10:11.548Z,23.03
2023-05-23T01:12:25.668Z,23.02
2023-05-23T01:14:35.267Z,22.99
2023-05-23T01:16:55.377Z,22.99
2023-05-23T01:19:25.185Z,22.95
2023-05-23T01:21:27.291Z,22.91
2023-05-23T01:23:56.144Z,22.90
2023-05-23T01:26:13.875Z,22.86
2023-05-23T01:28:22.216Z,22.84
2023-05-23T01:30:30.726Z,22.81
2023-05-23T01:32:32.957Z,22.80
2023-05-23T01:34:36.568Z,22.79
2023-05-23T01:36:43.149Z,22.77
2023-05-23T01:38:44.678Z,22.75
2023-05-23T01:40:46.383Z,22.73
2023-05-23T01:42:48.850Z,22.72
2023-05-23T01:44:50.580Z,22.69
2023-05-23T01:46:52.318Z,22.69
2023-05-23T01:48:55.784Z,22.67
2023-05-23T01:51:01.525Z,22.66
2023-05-23T01:53:04.329Z,22.65
2023-05-23T01:55:09.858Z,22.63
2023-05-23T01:57:13.727Z,22.62
2023-05-23T01:59:15.731Z,22.61
2023-05-23T02:01:21.123Z,22.58
2023-05-23T02:03:22.829Z,22.57
2023-05-23T02:05:25.275Z,22.57
2023-05-23T02:07:26.986Z,22.56
2023-05-23T02:09:28.558Z,22.55
2023-05-23T02:11:30.183Z,22.54
2023-05-23T02:13:32.912Z,22.53
2023-05-23T02:15:37.029Z,22.51
2023-05-23T02:17:41.593Z,22.52
2023-05-23T02:19:43.270Z,22.50
2023-05-23T02:21:44.899Z,22.49
2023-05-23T02:23:46.730Z,22.49
2023-05-23T02:25:52.098Z,22.48
2023-05-23T02:27:54.147Z,22.47
2023-05-23T02:29:56.735Z,22.47
2023-05-23T02:31:58.295Z,22.46
2023-05-23T02:33:59.941Z,22.44
2023-05-23T02:36:02.413Z,22.44
2023-05-23T02:38:05.135Z,22.43
2023-05-23T02:40:07.877Z,22.42
2023-05-23T02:42:10.943Z,22.42
2023-05-23T02:44:12.582Z,22.41
2023-05-23T02:46:14.236Z,22.40
2023-05-23T02:48:18.299Z,22.39
2023-05-23T02:50:20.615Z,22.38
2023-05-23T02:52:22.216Z,22.37
2023-05-23T02:54:23.759Z,22.37
2023-05-23T02:56:26.994Z,22.36
2023-05-23T02:58:29.838Z,22.35
2023-05-23T03:00:32.494Z,22.34
2023-05-23T03:02:34.316Z,22.33
2023-05-23T03:04:40.417Z,22.32
2023-05-23T03:06:46.377Z,22.31
2023-05-23T03:08:51.483Z,22.29
2023-05-23T03:10:53.308Z,22.28
2023-05-23T03:12:55.052Z,22.26
2023-05-23T03:14:59.453Z,22.25
2023-05-23T03:17:01.158Z,22.24
2023-05-23T03:19:04.990Z,22.22
2023-05-23T03:21:06.952Z,22.20
2023-05-23T03:23:08.656Z,22.19
2023-05-23T03:25:10.453Z,22.18
2023-05-23T03:27:12.218Z,22.16
2023-05-23T03:29:14.202Z,22.14
2023-05-23T03:31:18.679Z,22.11
2023-05-23T03:33:21.228Z,22.09
2023-05-23T03:35:22.967Z,22.08
2023-05-23T03:37:24.937Z,22.06
2023-05-23T03:39:33.955Z,22.05
2023-05-23T03:41:35.766Z,22.03
2023-05-23T03:43:37.634Z,22.01
2023-05-23T03:45:40.074Z,22.01
2023-05-23T03:47:47.362Z,21.99
2023-05-23T03:49:49.463Z,21.97
2023-05-23T03:51:51.216Z,21.97
2023-05-23T03:53:52.894Z,21.94
2023-05-23T03:55:54.653Z,21.94
2023-05-23T03:57:56.648Z,21.93
2023-05-23T03:59:58.562Z,21.92
2023-05-23T04:02:01.453Z,21.92
2023-05-23T04:04:05.817Z,21.91
2023-05-23T04:06:12.322Z,21.90
2023-05-23T04:08:22.322Z,21.90
2023-05-23T04:10:26.526Z,21.89
2023-05-23T04:12:30.743Z,21.88
2023-05-23T04:14:40.039Z,21.87
2023-05-23T04:16:42.485Z,21.87
2023-05-23T04:18:47.803Z,21.86
2023-05-23T04:20:49.866Z,21.84
2023-05-23T04:22:51.592Z,21.85
2023-05-23T04:24:53.384Z,21.85
2023-05-23T04:26:56.417Z,21.85
2023-05-23T04:28:59.179Z,21.84
2023-05-23T04:31:02.788Z,21.85
2023-05-23T04:33:08.248Z,21.85
2023-05-23T04:35:12.969Z,21.85
2023-05-23T04:37:17.375Z,21.86
2023-05-23T04:39:19.449Z,21.86
2023-05-23T04:41:41.025Z,21.86
2023-05-23T04:44:00.138Z,21.88
2023-05-23T04:46:14.695Z,21.89
2023-05-23T04:48:21.917Z,21.90
2023-05-23T04:50:24.322Z,21.91
2023-05-23T04:52:30.121Z,21.93
2023-05-23T04:54:31.753Z,21.94
2023-05-23T04:56:35.653Z,21.96
2023-05-23T04:58:37.332Z,21.98
2023-05-23T05:00:42.539Z,22.00
2023-05-23T05:02:44.594Z,22.00
2023-05-23T05:04:46.289Z,22.04
2023-05-23T05:06:48.737Z,22.05
2023-05-23T05:08:51.686Z,22.08
2023-05-23T05:10:54.654Z,22.10
2023-05-23T05:12:56.294Z,22.13
2023-05-23T05:14:58.623Z,22.16
2023-05-23T05:17:02.758Z,22.17
2023-05-23T05:19:12.359Z,22.19
2023-05-23T05:21:14.179Z,22.23
2023-05-23T05:23:16.204Z,22.25
2023-05-23T05:25:18.090Z,22.28
2023-05-23T05:27:19.754Z,22.30
2023-05-23T05:29:25.348Z,22.34
2023-05-23T05:31:28.548Z,22.35
2023-05-23T05:33:37.659Z,22.38
2023-05-23T05:35:44.225Z,22.40
2023-05-23T05:37:46.173Z,22.42
2023-05-23T05:39:48.306Z,22.45
2023-05-23T05:41:49.985Z,22.47
2023-05-23T05:43:51.586Z,22.50
2023-05-23T05:45:53.415Z,22.53
2023-05-23T05:47:55.093Z,22.55
2023-05-23T05:49:58.404Z,22.60
2023-05-23T05:52:00.135Z,22.62
2023-05-23T05:54:01.664Z,22.65
2023-05-23T05:56:03.269Z,22.68
2023-05-23T05:58:06.548Z,22.71
2023-05-23T06:00:22.052Z,22.73
2023-05-23T06:02:33.578Z,22.77
2023-05-23T06:04:35.278Z,22.81
2023-05-23T06:06:37.074Z,22.88
2023-05-23T06:08:38.905Z,22.98
2023-05-23T06:10:40.581Z,23.10
2023-05-23T06:12:43.086Z,23.21
2023-05-23T06:14:50.770Z,23.31
2023-05-23T06:16:52.709Z,23.40
2023-05-23T06:18:54.466Z,23.52
2023-05-23T06:20:58.062Z,23.58
2023-05-23T06:23:01.756Z,23.67
2023-05-23T06:25:03.920Z,23.77
2023-05-23T06:27:05.705Z,23.84
2023-05-23T06:29:07.267Z,23.93
2023-05-23T06:31:21.887Z,24.00
2023-05-23T06:33:23.484Z,24.11
2023-05-23T06:35:24.987Z,24.20
2023-05-23T06:37:27.579Z,24.28
2023-05-23T06:39:29.179Z,24.36
2023-05-23T06:41:30.898Z,24.42
2023-05-23T06:43:34.415Z,24.49
2023-05-23T06:45:58.012Z,24.55
2023-05-23T06:48:03.313Z,24.61
2023-05-23T06:50:06.912Z,24.67
2023-05-23T06:52:08.504Z,24.69
2023-05-23T06:54:11.319Z,24.74
2023-05-23T06:56:15.968Z,24.78
2023-05-23T06:58:28.008Z,24.81
2023-05-23T07:00:32.555Z,24.83
2023-05-23T07:02:48.727Z,24.85
2023-05-23T07:04:53.864Z,24.88
2023-05-23T07:07:15.402Z,24.89
2023-05-23T07:09:18.551Z,24.90
2023-05-23T07:11:22.936Z,24.90
2023-05-23T07:13:29.051Z,24.90
2023-05-23T07:15:30.889Z,24.88
2023-05-23T07:17:44.677Z,24.87
2023-05-23T07:19:48.424Z,24.87
2023-05-23T07:21:50.136Z,24.88
2023-05-23T07:23:53.822Z,24.94
2023-05-23T07:26:02.339Z,24.98
2023-05-23T07:28:22.240Z,25.05
2023-05-23T07:30:24.034Z,25.10
2023-05-23T07:32:25.713Z,25.17
2023-05-23T07:34:28.406Z,25.21
2023-05-23T07:36:35.302Z,25.22
2023-05-23T07:38:37.792Z,25.26
2023-05-23T07:40:40.512Z,25.29
2023-05-23T07:42:42.901Z,25.33
2023-05-23T07:44:44.596Z,25.36
2023-05-23T07:46:48.514Z,25.40
2023-05-23T07:48:50.666Z,25.44
2023-05-23T07:50:55.136Z,25.48
2023-05-23T07:52:58.082Z,25.49
2023-05-23T07:55:04.297Z,25.48
2023-05-23T07:57:09.708Z,25.51
2023-05-23T07:59:12.133Z,25.56
2023-05-23T08:01:15.266Z,25.59
2023-05-23T08:03:35.701Z,25.64
2023-05-23T08:05:43.893Z,25.71
2023-05-23T08:07:45.579Z,25.79
2023-05-23T08:09:47.220Z,25.89
2023-05-23T08:11:52.612Z,26.00
2023-05-23T08:13:55.553Z,26.13
2023-05-23T08:16:12.429Z,26.23
2023-05-23T08:18:14.407Z,26.30
2023-05-23T08:20:24.660Z,26.36
2023-05-23T08:22:26.306Z,26.40
2023-05-23T08:24:30.362Z,26.46
2023-05-23T08:26:34.908Z,26.52
2023-05-23T08:28:38.696Z,26.53
2023-05-23T08:30:40.929Z,26.56
2023-05-23T08:32:42.910Z,26.55
2023-05-23T08:34:44.570Z,26.55
2023-05-23T08:36:47.282Z,26.57
2023-05-23T08:38:53.792Z,26.59
2023-05-23T08:41:23.973Z,26.59
2023-05-23T08:43:31.230Z,26.59
2023-05-23T08:45:34.736Z,26.61
2023-05-23T08:47:47.104Z,26.60
2023-05-23T08:49:55.120Z,26.59
2023-05-23T08:52:02.419Z,26.63
2023-05-23T08:54:06.564Z,26.67
2023-05-23T08:56:09.646Z,26.72
2023-05-23T08:58:20.858Z,26.77
2023-05-23T09:00:28.361Z,26.86
2023-05-23T09:02:32.581Z,26.93
2023-05-23T09:04:44.698Z,27.01
2023-05-23T09:06:57.606Z,27.12
2023-05-23T09:08:59.960Z,27.24
2023-05-23T09:11:05.445Z,27.37
2023-05-23T09:13:14.456Z,27.49
2023-05-23T09:15:17.614Z,27.58
2023-05-23T09:17:21.326Z,27.64
2023-05-23T09:19:23.137Z,27.69
2023-05-23T09:21:31.924Z,27.71
2023-05-23T09:23:44.268Z,27.72
2023-05-23T09:25:47.957Z,27.73
2023-05-23T09:27:52.770Z,27.69
2023-05-23T09:29:54.381Z,27.66
2023-05-23T09:32:10.403Z,27.63
2023-05-23T09:34:13.377Z,27.60
2023-05-23T09:36:15.969Z,27.57
2023-05-23T09:38:21.620Z,27.52
2023-05-23T09:40:31.508Z,27.50
2023-05-23T09:42:35.433Z,27.47
2023-05-23T09:44:41.459Z,27.42
2023-05-23T09:46:43.852Z,27.41
2023-05-23T09:48:51.547Z,27.39
2023-05-23T09:50:55.942Z,27.37
2023-05-23T09:52:57.706Z,27.36
2023-05-23T09:55:00.186Z,27.33
2023-05-23T09:57:18.296Z,27.32
2023-05-23T09:59:37.804Z,27.30
2023-05-23T10:04:09.457Z,27.22
2023-05-23T10:06:29.547Z,27.18
2023-05-23T10:08:38.948Z,27.17
2023-05-23T10:11:05.408Z,27.10
2023-05-23T10:13:07.348Z,27.06
2023-05-23T10:15:11.942Z,27.03
2023-05-23T10:17:24.131Z,26.99
2023-05-23T10:19:32.396Z,26.96
2023-05-23T10:21:38.824Z,26.92
2023-05-23T10:23:42.333Z,26.87
2023-05-23T10:25:44.537Z,26.84
2023-05-23T10:27:54.549Z,26.81
2023-05-23T10:29:56.373Z,26.78
2023-05-23T10:31:58.959Z,26.73
2023-05-23T10:34:13.656Z,26.70
2023-05-23T10:36:22.408Z,26.67
2023-05-23T10:38:34.274Z,26.63
2023-05-23T10:40:57.468Z,26.62
2023-05-23T10:43:20.636Z,26.60
2023-05-23T10:45:28.229Z,26.61
2023-05-23T10:47:29.795Z,26.60
2023-05-23T10:49:45.980Z,26.59
2023-05-23T10:51:54.286Z,26.61
2023-05-23T10:53:55.913Z,26.64
2023-05-23T10:55:57.821Z,26.65
2023-05-23T10:58:35.529Z,26.63
2023-05-23T11:00:37.516Z,26.63
2023-05-23T11:02:55.614Z,26.64
2023-05-23T11:05:22.830Z,26.64
2023-05-23T11:07:32.284Z,26.64
2023-05-23T11:09:33.833Z,26.65
2023-05-23T11:11:50.526Z,26.66
2023-05-23T11:13:57.516Z,26.67
2023-05-23T11:15:59.171Z,26.68
2023-05-23T11:18:01.029Z,26.69
2023-05-23T11:20:09.714Z,26.70
2023-05-23T11:22:14.272Z,26.70
2023-05-23T11:24:17.610Z,26.72
2023-05-23T11:26:32.482Z,26.70
2023-05-23T11:28:57.786Z,26.69
2023-05-23T11:30:59.455Z,26.71
2023-05-23T11:33:01.316Z,26.71
2023-05-23T11:35:07.370Z,26.68
2023-05-23T11:37:09.592Z,26.68
2023-05-23T11:39:11.101Z,26.65
2023-05-23T11:41:12.811Z,26.61
2023-05-23T11:43:16.834Z,26.60
2023-05-23T11:45:22.415Z,26.56
2023-05-23T11:47:23.992Z,26.52
2023-05-23T11:49:25.539Z,26.47
2023-05-23T11:51:27.210Z,26.43
2023-05-23T11:53:29.026Z,26.38
2023-05-23T11:55:31.337Z,26.34
2023-05-23T11:57:34.066Z,26.31
2023-05-23T11:59:36.128Z,26.30
2023-05-23T12:01:37.932Z,26.27
2023-05-23T12:04:09.477Z,26.24
2023-05-23T12:06:12.779Z,26.24
2023-05-23T12:08:15.824Z,26.25
2023-05-23T12:10:18.349Z,26.25
2023-05-23T12:12:21.337Z,26.26
2023-05-23T12:14:23.251Z,26.27
2023-05-23T12:16:29.773Z,26.26
2023-05-23T12:18:32.536Z,26.24
2023-05-23T12:20:35.645Z,26.23
2023-05-23T12:22:37.385Z,26.22
2023-05-23T12:24:46.662Z,26.21
2023-05-23T12:26:48.100Z,26.19
2023-05-23T12:28:50.006Z,26.20
2023-05-23T12:30:51.667Z,26.18
2023-05-23T12:32:53.734Z,26.19
2023-05-23T12:34:55.568Z,26.19
2023-05-23T12:37:10.390Z,26.21
2023-05-23T12:39:26.548Z,26.16
2023-05-23T12:41:28.001Z,26.15
2023-05-23T12:43:29.514Z,26.16
2023-05-23T12:45:44.165Z,26.16
2023-05-23T12:47:45.962Z,26.16
2023-05-23T12:49:48.233Z,26.16
2023-05-23T12:51:49.729Z,26.16
2023-05-23T12:53:51.294Z,26.18
2023-05-23T12:55:55.460Z,26.19
2023-05-23T12:57:57.340Z,26.23
2023-05-23T12:59:59.252Z,26.26
2023-05-23T13:02:02.186Z,26.29
2023-05-23T13:04:03.975Z,26.29
2023-05-23T13:06:06.651Z,26.29
2023-05-23T13:08:08.504Z,26.28
2023-05-23T13:10:10.591Z,26.28
2023-05-23T13:12:12.528Z,26.25
2023-05-23T13:14:14.122Z,26.24
2023-05-23T13:16:16.659Z,26.22
2023-05-23T13:18:18.490Z,26.19
2023-05-23T13:20:23.579Z,26.16
2023-05-23T13:22:25.362Z,26.13
2023-05-23T13:24:27.367Z,26.09
2023-05-23T13:26:29.380Z,26.06
2023-05-23T13:28:31.096Z,26.04
2023-05-23T13:30:32.729Z,26.03
2023-05-23T13:32:34.236Z,26.00
2023-05-23T13:34:37.491Z,25.99
2023-05-23T13:36:39.111Z,25.96
2023-05-23T13:38:40.633Z,25.94
2023-05-23T13:40:42.367Z,25.92
2023-05-23T13:42:44.521Z,25.89
2023-05-23T13:44:46.208Z,25.86
2023-05-23T13:46:47.845Z,25.85
2023-05-23T13:48:49.413Z,25.82
2023-05-23T13:50:51.176Z,25.81
2023-05-23T13:52:53.863Z,25.78
2023-05-23T13:54:55.799Z,25.77
2023-05-23T13:56:57.956Z,25.77
2023-05-23T13:58:59.712Z,25.78
2023-05-23T14:01:01.186Z,25.79
2023-05-23T14:03:06.016Z,25.81
2023-05-23T14:05:08.245Z,25.82
2023-05-23T14:07:09.897Z,25.84
2023-05-23T14:09:13.215Z,25.86
2023-05-23T14:11:14.708Z,25.86
2023-05-23T14:13:16.490Z,25.87
2023-05-23T14:15:18.469Z,25.88
2023-05-23T14:17:21.066Z,25.88
2023-05-23T14:19:22.768Z,25.89
2023-05-23T14:21:24.459Z,25.91
2023-05-23T14:23:26.050Z,25.93
2023-05-23T14:25:27.741Z,25.95
2023-05-23T14:27:29.480Z,25.95
2023-05-23T14:29:31.774Z,25.97
2023-05-23T14:31:36.299Z,25.99
2023-05-23T14:33:37.881Z,25.99
2023-05-23T14:35:40.073Z,26.00
2023-05-23T14:37:41.862Z,26.00
2023-05-23T14:39:43.476Z,25.99
2023-05-23T14:41:49.176Z,25.98
2023-05-23T14:43:51.066Z,25.97
2023-05-23T14:45:52.909Z,25.96
2023-05-23T14:47:54.586Z,25.93
2023-05-23T14:49:56.147Z,25.90
2023-05-23T14:52:01.888Z,25.88
2023-05-23T14:54:03.529Z,25.85
2023-05-23T14:56:05.235Z,25.83
2023-05-23T14:58:07.203Z,25.80
2023-05-23T15:00:10.234Z,25.79
2023-05-23T15:02:12.477Z,25.78
2023-05-23T15:04:14.381Z,25.74
2023-05-23T15:06:41.694Z,25.71
2023-05-23T15:09:06.196Z,25.67
2023-05-23T15:11:09.666Z,25.65
2023-05-23T15:13:14.349Z,25.63
2023-05-23T15:15:22.752Z,25.60
2023-05-23T15:17:26.599Z,25.58
2023-05-23T15:19:28.773Z,25.54
2023-05-23T15:21:30.597Z,25.50
2023-05-23T15:23:32.465Z,25.46
2023-05-23T15:25:47.136Z,25.43
2023-05-23T15:27:53.620Z,25.38
2023-05-23T15:30:03.746Z,25.34
2023-05-23T15:32:09.564Z,25.31
2023-05-23T15:34:11.755Z,25.27
2023-05-23T15:36:16.289Z,25.25
2023-05-23T15:38:20.270Z,25.21
2023-05-23T15:40:22.380Z,25.19
2023-05-23T15:42:24.421Z,25.16
2023-05-23T15:44:26.185Z,25.13
2023-05-23T15:46:27.801Z,25.11
2023-05-23T15:48:29.554Z,25.09
2023-05-23T15:50:34.025Z,25.06
2023-05-23T15:52:35.616Z,25.05
2023-05-23T15:54:37.107Z,25.02
2023-05-23T15:56:38.875Z,25.00
2023-05-23T15:58:40.559Z,24.98
2023-05-23T16:00:42.336Z,24.97
2023-05-23T16:02:44.327Z,24.96
2023-05-23T16:04:46.140Z,24.95
2023-05-23T16:06:47.632Z,24.95
2023-05-23T16:08:49.172Z,24.94
2023-05-23T16:10:51.630Z,24.92
2023-05-23T16:12:53.272Z,24.91
2023-05-23T16:14:55.057Z,24.90
2023-05-23T16:16:57.153Z,24.89
2023-05-23T16:18:58.784Z,24.87
2023-05-23T16:21:00.616Z,24.86
2023-05-23T16:23:02.213Z,24.86
2023-05-23T16:25:06.028Z,24.84
2023-05-23T16:27:07.712Z,24.83
2023-05-23T16:29:11.273Z,24.81
2023-05-23T16:31:18.107Z,24.80
2023-05-23T16:33:19.994Z,24.77
2023-05-23T16:35:21.655Z,24.77
2023-05-23T16:37:23.718Z,24.74
2023-05-23T16:39:27.708Z,24.74
2023-05-23T16:41:29.712Z,24.72
2023-05-23T16:43:32.043Z,24.71
2023-05-23T16:45:33.798Z,24.70
2023-05-23T16:47:35.815Z,24.70
2023-05-23T16:49:37.532Z,24.66
2023-05-23T16:51:39.064Z,24.66
2023-05-23T16:53:40.691Z,24.62
2023-05-23T16:55:45.283Z,24.59
2023-05-23T16:57:46.916Z,24.56
2023-05-23T16:59:51.155Z,24.52
2023-05-23T17:01:52.969Z,24.49
2023-05-23T17:03:54.702Z,24.46
2023-05-23T17:05:56.417Z,24.44
2023-05-23T17:07:57.881Z,24.41
2023-05-23T17:10:01.251Z,24.38
2023-05-23T17:12:03.165Z,24.35
2023-05-23T17:14:04.674Z,24.32
2023-05-23T17:16:09.185Z,24.28
2023-05-23T17:18:11.125Z,24.23
2023-05-23T17:20:13.137Z,24.21
2023-05-23T17:22:14.924Z,24.16
2023-05-23T17:24:19.124Z,24.12
2023-05-23T17:26:20.803Z,24.08
2023-05-23T17:28:22.687Z,24.05
2023-05-23T17:30:24.250Z,24.03
2023-05-23T17:32:27.114Z,24.00
2023-05-23T17:34:28.892Z,23.97
2023-05-23T17:36:35.013Z,23.94
2023-05-23T17:38:38.520Z,23.90
2023-05-23T17:40:42.995Z,23.86
2023-05-23T17:42:44.829Z,23.84
2023-05-23T17:44:46.414Z,23.81
2023-05-23T17:46:47.963Z,23.79
2023-05-23T17:48:49.732Z,23.74
2023-05-23T17:50:52.126Z,23.70
2023-05-23T17:52:56.316Z,23.67
2023-05-23T17:55:00.938Z,23.64
2023-05-23T17:57:05.396Z,23.60
2023-05-23T17:59:07.270Z,23.56
2023-05-23T18:01:08.935Z,23.52
2023-05-23T18:03:10.554Z,23.50
2023-05-23T18:05:12.625Z,23.45
2023-05-23T18:07:18.065Z,23.42
2023-05-23T18:09:19.738Z,23.38
2023-05-23T18:11:22.882Z,23.33
2023-05-23T18:13:26.000Z,23.30
2023-05-23T18:15:27.563Z,23.25
2023-05-23T18:17:30.835Z,23.20
2023-05-23T18:19:32.604Z,23.17
2023-05-23T18:21:34.914Z,23.14
2023-05-23T18:23:39.858Z,23.12
2023-05-23T18:25:41.390Z,23.08
2023-05-23T18:27:46.195Z,23.06
2023-05-23T18:29:47.735Z,23.01
2023-05-23T18:31:49.428Z,22.98
2023-05-23T18:33:51.639Z,22.93
2023-05-23T18:35:53.474Z,22.90
2023-05-23T18:37:55.225Z,22.88
2023-05-23T18:39:58.784Z,22.84
2023-05-23T18:42:01.247Z,22.80
2023-05-23T18:44:04.958Z,22.77
2023-05-23T18:46:08.232Z,22.74
2023-05-23T18:48:09.893Z,22.71
2023-05-23T18:50:14.364Z,22.68
2023-05-23T18:52:16.057Z,22.64
2023-05-23T18:54:18.421Z,22.62
2023-05-23T18:56:23.095Z,22.58
2023-05-23T18:58:24.730Z,22.57
2023-05-23T19:00:26.367Z,22.53
2023-05-23T19:02:29.086Z,22.50
2023-05-23T19:04:32.366Z,22.48
2023-05-23T19:06:38.911Z,22.45
2023-05-23T19:08:42.251Z,22.42
2023-05-23T19:10:44.255Z,22.41
2023-05-23T19:12:46.261Z,22.38
2023-05-23T19:14:47.896Z,22.35
2023-05-23T19:16:49.635Z,22.32
2023-05-23T19:18:51.586Z,22.30
2023-05-23T19:20:54.208Z,22.28
2023-05-23T19:22:55.731Z,22.26
2023-05-23T19:24:58.428Z,22.23
2023-05-23T19:27:03.184Z,22.19
2023-05-23T19:29:04.946Z,22.16
2023-05-23T19:31:07.928Z,22.13
2023-05-23T19:33:10.177Z,22.09
2023-05-23T19:35:16.850Z,22.06
2023-05-23T19:37:18.889Z,22.03
2023-05-23T19:39:21.526Z,22.00
2023-05-23T19:41:29.144Z,21.97
2023-05-23T19:43:30.824Z,21.93
2023-05-23T19:45:32.478Z,21.89
2023-05-23T19:47:34.569Z,21.87
2023-05-23T19:49:36.452Z,21.84
2023-05-23T19:51:40.790Z,21.80
2023-05-23T19:53:42.449Z,21.77
2023-05-23T19:55:46.679Z,21.75
2023-05-23T19:57:51.813Z,21.72
2023-05-23T19:59:59.520Z,21.67
2023-05-23T20:02:01.470Z,21.65
2023-05-23T20:04:03.214Z,21.60
2023-05-23T20:06:05.255Z,21.57
2023-05-23T20:08:06.935Z,21.52
2023-05-23T20:10:09.057Z,21.49
2023-05-23T20:12:10.679Z,21.43
2023-05-23T20:14:12.528Z,21.40
2023-05-23T20:16:14.247Z,21.37
2023-05-23T20:18:15.803Z,21.33
2023-05-23T20:20:17.844Z,21.29
2023-05-23T20:22:19.541Z,21.26
2023-05-23T20:24:21.364Z,21.21
2023-05-23T20:26:24.425Z,21.17
2023-05-23T20:28:26.042Z,21.14
2023-05-23T20:30:28.001Z,21.12
2023-05-23T20:32:29.825Z,21.08
2023-05-23T20:34:31.856Z,21.05
2023-05-23T20:36:33.636Z,21.03
2023-05-23T20:38:35.701Z,20.99
2023-05-23T20:40:37.218Z,20.95
2023-05-23T20:42:41.453Z,20.91
2023-05-23T20:44:45.546Z,20.88
2023-05-23T20:46:47.626Z,20.87
2023-05-23T20:48:54.314Z,20.84
2023-05-23T20:50:58.508Z,20.81
2023-05-23T20:53:02.172Z,20.76
2023-05-23T20:55:04.814Z,20.74
2023-05-23T20:57:06.529Z,20.69
2023-05-23T20:59:08.201Z,20.65
2023-05-23T21:01:13.018Z,20.61
2023-05-23T21:03:17.270Z,20.57
2023-05-23T21:05:18.918Z,20.54
2023-05-23T21:07:20.636Z,20.51
2023-05-23T21:09:22.230Z,20.48
2023-05-23T21:11:23.840Z,20.45
2023-05-23T21:13:25.491Z,20.43
2023-05-23T21:15:28.059Z,20.41
2023-05-23T21:17:29.660Z,20.39
2023-05-23T21:19:35.401Z,20.36
2023-05-23T21:21:39.986Z,20.34
2023-05-23T21:23:41.562Z,20.29
2023-05-23T21:25:43.078Z,20.28
2023-05-23T21:27:47.071Z,20.24
2023-05-23T21:29:48.594Z,20.22
2023-05-23T21:31:50.293Z,20.19
2023-05-23T21:33:51.852Z,20.17
2023-05-23T21:35:53.601Z,20.15
2023-05-23T21:37:55.204Z,20.11
2023-05-23T21:39:56.888Z,20.08
2023-05-23T21:41:58.397Z,20.06
2023-05-23T21:43:59.944Z,20.02
2023-05-23T21:46:02.168Z,19.99
2023-05-23T21:48:04.050Z,19.96
2023-05-23T21:50:09.365Z,19.93
2023-05-23T21:52:10.930Z,19.91
2023-05-23T21:54:12.425Z,19.88
2023-05-23T21:56:13.956Z,19.85
2023-05-23T21:58:16.210Z,19.82
2023-05-23T22:00:19.460Z,19.81
2023-05-23T22:02:21.484Z,19.76
2023-05-23T22:04:23.120Z,19.76
2023-05-23T22:06:27.786Z,19.71
2023-05-23T22:08:33.085Z,19.67
2023-05-23T22:10:37.953Z,19.66
2023-05-23T22:12:41.199Z,19.63
2023-05-23T22:14:44.206Z,19.59
2023-05-23T22:16:46.587Z,19.57
2023-05-23T22:18:52.057Z,19.54
2023-05-23T22:20:53.895Z,19.51
2023-05-23T22:22:56.212Z,19.49
2023-05-23T22:24:57.732Z,19.46
2023-05-23T22:27:00.706Z,19.41
2023-05-23T22:29:04.315Z,19.40
2023-05-23T22:31:06.592Z,19.37
2023-05-23T22:33:13.974Z,19.33
2023-05-23T22:35:16.003Z,19.29
2023-05-23T22:37:18.440Z,19.26
2023-05-23T22:39:20.083Z,19.23
2023-05-23T22:41:24.691Z,19.21
2023-05-23T22:43:26.474Z,19.18
2023-05-23T22:45:33.493Z,19.15
2023-05-23T22:47:35.220Z,19.11
2023-05-23T22:49:42.460Z,19.07
2023-05-23T22:51:44.752Z,19.03
2023-05-23T22:53:46.377Z,19.00
2023-05-23T22:55:49.235Z,18.95
2023-05-23T22:57:50.764Z,18.93
2023-05-23T22:59:52.325Z,18.91
2023-05-23T23:01:53.918Z,18.88
2023-05-23T23:03:55.677Z,18.85
2023-05-23T23:05:57.568Z,18.82
2023-05-23T23:08:00.444Z,18.80
2023-05-23T23:10:01.903Z,18.76
2023-05-23T23:12:03.653Z,18.74
2023-05-23T23:14:05.164Z,18.71
2023-05-23T23:16:09.968Z,18.68
2023-05-23T23:18:14.904Z,18.64
2023-05-23T23:20:17.331Z,18.61
2023-05-23T23:22:19.033Z,18.58
2023-05-23T23:24:20.878Z,18.55
2023-05-23T23:26:23.210Z,18.53
2023-05-23T23:28:24.804Z,18.50
2023-05-23T23:30:26.392Z,18.46
2023-05-23T23:32:28.306Z,18.43
2023-05-23T23:34:30.035Z,18.39
2023-05-23T23:36:33.604Z,18.35
2023-05-23T23:38:38.231Z,18.33
2023-05-23T23:40:40.099Z,18.30
2023-05-23T23:42:41.818Z,18.26
2023-05-23T23:44:43.336Z,18.23
2023-05-23T23:46:45.178Z,18.21
2023-05-23T23:48:47.244Z,18.17
2023-05-23T23:50:49.194Z,18.14
2023-05-23T23:52:50.743Z,18.10
2023-05-23T23:54:54.497Z,18.06
2023-05-23T23:56:56.117Z,18.02
2023-05-23T23:59:00.980Z,18.00
